Time;durP1;ratioP1;P1;durP2;ratioP2;P2;SDS_P1;SDS_P2;PMS_P1;PMS_P2;Temp;Humidity;BMP_temperature;BMP_pressure;BME280_temperature;BME280_humidity;BME280_pressure;Samples;Min_cycle;Max_cycle;Signal;HPM_P1;HPM_P2
2022/05/27 00:00:39;;;;;;;1.65;1.55;;;10.70;99.90;;;;;;4683143;30;20050;-85
2022/05/27 00:03:09;;;;;;;2.00;1.52;;;10.70;99.90;;;;;;4696709;30;20065;-86
2022/05/27 00:05:38;;;;;;;1.80;1.65;;;10.70;99.90;;;;;;4696025;30;20050;-84
2022/05/27 00:08:09;;;;;;;1.48;1.38;;;10.70;99.90;;;;;;4682114;30;20062;-84
2022/05/27 00:10:38;;;;;;;2.00;1.90;;;10.70;99.90;;;;;;4681523;30;20154;-85
2022/05/27 00:13:06;;;;;;;1.70;1.60;;;10.70;99.90;;;;;;4667522;30;20053;-85
2022/05/27 00:15:34;;;;;;;1.70;1.60;;;10.70;99.90;;;;;;4668266;30;20062;-84
2022/05/27 00:18:03;;;;;;;2.47;1.70;;;10.70;99.90;;;;;;4681450;30;20061;-85
2022/05/27 00:20:31;;;;;;;2.38;2.13;;;10.70;99.90;;;;;;4666832;30;20105;-85
2022/05/27 00:22:59;;;;;;;4.57;1.77;;;10.70;99.90;;;;;;4681569;30;20054;-85
2022/05/27 00:25:27;;;;;;;1.50;1.35;;;10.60;99.90;;;;;;4667114;30;20049;-84
2022/05/27 00:27:57;;;;;;;1.50;1.40;;;10.60;99.90;;;;;;4667753;30;20090;-85
2022/05/27 00:30:26;;;;;;;1.92;1.35;;;10.50;99.90;;;;;;4667455;30;20526;-84
2022/05/27 00:32:54;;;;;;;1.77;1.65;;;10.40;99.90;;;;;;4681558;30;20074;-87
2022/05/27 00:35:22;;;;;;;4.63;3.88;;;10.50;99.90;;;;;;4667743;30;20411;-87
2022/05/27 00:37:52;;;;;;;2.55;2.35;;;10.60;99.90;;;;;;4666821;30;20062;-87
2022/05/27 00:40:21;;;;;;;1.83;1.73;;;10.60;99.90;;;;;;4682336;30;20396;-87
2022/05/27 00:42:49;;;;;;;3.20;2.92;;;10.60;99.90;;;;;;4682825;30;20058;-87
2022/05/27 00:45:55;;;;;;;1.70;1.60;;;10.60;99.90;;;;;;4666583;30;20050;-87
2022/05/27 00:48:27;;;;;;;2.30;2.10;;;10.40;99.90;;;;;;4666636;30;20062;-87
2022/05/27 00:50:57;;;;;;;2.60;2.00;;;10.30;99.90;;;;;;4667363;30;20065;-87
2022/05/27 00:53:34;;;;;;;1.88;1.73;;;10.20;99.90;;;;;;4681207;30;20058;-87
2022/05/27 00:56:07;;;;;;;5.82;2.55;;;10.20;99.90;;;;;;4667147;30;20061;-87
2022/05/27 00:58:52;;;;;;;2.53;2.35;;;10.10;99.90;;;;;;4665812;30;20549;-87
2022/05/27 01:01:20;;;;;;;2.78;2.13;;;10.00;99.90;;;;;;4681004;30;20053;-87
2022/05/27 01:03:48;;;;;;;2.08;1.88;;;10.10;99.90;;;;;;4667448;30;20506;-87
2022/05/27 01:06:16;;;;;;;3.97;2.40;;;10.10;99.90;;;;;;4681080;30;20416;-86
2022/05/27 01:08:45;;;;;;;2.55;2.33;;;10.10;99.90;;;;;;4680601;30;20045;-87
2022/05/27 01:11:43;;;;;;;3.00;1.70;;;10.00;99.90;;;;;;4682293;30;20065;-87
2022/05/27 01:14:30;;;;;;;1.75;1.65;;;9.90;99.90;;;;;;4666777;30;20050;-87
2022/05/27 01:17:21;;;;;;;3.00;2.22;;;9.80;99.90;;;;;;4681114;30;20495;-87
2022/05/27 01:20:27;;;;;;;;;;;9.80;99.90;;;;;;4667071;30;20077;-87
2022/05/27 01:25:25;;;;;;;2.17;2.08;;;9.80;99.90;;;;;;4683324;30;19931;-87
2022/05/27 01:30:01;;;;;;;3.53;1.60;;;10.10;99.90;;;;;;4680641;30;20038;-87
2022/05/27 01:34:37;;;;;;;3.50;2.70;;;9.80;99.90;;;;;;4660532;30;20046;-87
2022/05/27 01:39:24;;;;;;;6.38;2.13;;;9.80;99.90;;;;;;4663910;30;20050;-87
2022/05/27 02:07:54;;;;;;;1.40;1.30;;;9.90;99.90;;;;;;4622366;31;20047;-87
2022/05/27 02:16:51;;;;;;;2.78;2.58;;;9.70;99.90;;;;;;4672690;30;20066;-87
2022/05/27 02:21:53;;;;;;;3.10;2.42;;;9.50;99.90;;;;;;4683892;30;20522;-87
2022/05/27 02:26:52;;;;;;;2.25;1.95;;;9.60;99.90;;;;;;4683948;30;20064;-87
2022/05/27 02:31:08;;;;;;;1.95;1.85;;;9.60;99.90;;;;;;4684331;30;20065;-87
2022/05/27 02:36:32;;;;;;;2.35;2.15;;;9.70;99.90;;;;;;4683192;30;20060;-87
2022/05/27 02:39:00;;;;;;;2.13;1.98;;;9.60;99.90;;;;;;4683418;30;20062;-86
2022/05/27 02:42:22;;;;;;;1.90;1.80;;;9.50;99.90;;;;;;4665820;30;20046;-87
2022/05/27 02:45:21;;;;;;;1.80;1.70;;;9.60;99.90;;;;;;4666544;30;20043;-86
2022/05/27 02:48:14;;;;;;;5.07;1.73;;;9.70;99.90;;;;;;4666266;30;20071;-88
2022/05/27 03:11:53;;;;;;;1.30;1.30;;;11.00;99.90;;;;;;4676730;30;20050;-88
2022/05/27 03:14:31;;;;;;;1.80;1.70;;;11.00;99.90;;;;;;4664931;30;20424;-89
2022/05/27 03:17:22;;;;;;;1.42;1.40;;;11.10;99.90;;;;;;4665735;30;20053;-89
2022/05/27 03:34:36;;;;;;;1.63;1.52;;;11.70;99.90;;;;;;4683728;30;20401;-88
2022/05/27 03:37:12;;;;;;;1.92;1.83;;;11.80;99.90;;;;;;4684080;30;20392;-88
2022/05/27 03:39:46;;;;;;;2.08;1.98;;;11.90;99.90;;;;;;4697366;30;20054;-88
2022/05/27 03:42:15;;;;;;;4.10;1.65;;;12.00;99.90;;;;;;4696885;30;20522;-88
2022/05/27 03:50:02;;;;;;;1.52;1.42;;;12.00;99.90;;;;;;4684359;30;20049;-89
2022/05/27 03:52:38;;;;;;;2.25;2.05;;;12.10;99.90;;;;;;4697167;30;20603;-88
2022/05/27 03:55:07;;;;;;;3.28;1.48;;;12.10;99.90;;;;;;4697141;30;20438;-89
2022/05/27 03:57:44;;;;;;;1.42;1.33;;;12.20;99.90;;;;;;4695902;30;20060;-90
2022/05/27 04:00:14;;;;;;;2.60;2.15;;;12.20;99.90;;;;;;4683025;30;20491;-86
2022/05/27 04:02:43;;;;;;;1.48;1.38;;;12.30;99.90;;;;;;4696483;30;20516;-87
2022/05/27 04:05:55;;;;;;;2.30;1.88;;;12.40;99.90;;;;;;4696603;30;20050;-88
2022/05/27 04:10:28;;;;;;;2.63;2.42;;;12.40;99.90;;;;;;4686006;30;20045;-88
2022/05/27 04:21:17;;;;;;;1.48;1.38;;;12.60;99.90;;;;;;4681543;30;20534;-86
2022/05/27 04:48:57;;;;;;;2.05;1.95;;;13.00;99.90;;;;;;4678007;30;20434;-86
2022/05/27 04:51:36;;;;;;;1.60;1.50;;;13.00;99.90;;;;;;4696056;30;20058;-87
2022/05/27 04:54:09;;;;;;;5.00;1.92;;;13.10;99.90;;;;;;4681257;30;20419;-86
2022/05/27 04:56:43;;;;;;;4.15;1.95;;;13.20;99.90;;;;;;4682564;30;20066;-87
2022/05/27 04:59:26;;;;;;;3.25;1.40;;;13.20;99.90;;;;;;4695871;30;20050;-87
2022/05/27 05:02:10;;;;;;;2.15;1.67;;;13.20;99.90;;;;;;4672599;30;20050;-88
2022/05/27 05:04:41;;;;;;;1.70;1.58;;;13.20;99.90;;;;;;4695500;30;20046;-86
2022/05/27 05:07:13;;;;;;;2.10;2.00;;;13.30;99.90;;;;;;4695754;30;20545;-87
2022/05/27 05:09:53;;;;;;;1.95;1.85;;;13.30;99.90;;;;;;4680558;30;20062;-88
2022/05/27 05:12:22;;;;;;;2.03;1.92;;;13.30;99.90;;;;;;4686842;30;20484;-83
2022/05/27 05:14:53;;;;;;;2.22;2.00;;;13.30;99.90;;;;;;4681535;30;20062;-84
2022/05/27 05:17:32;;;;;;;2.47;2.38;;;13.30;99.90;;;;;;4680930;30;20050;-83
2022/05/27 05:20:00;;;;;;;2.80;2.35;;;13.30;99.90;;;;;;4681479;30;20064;-86
2022/05/27 05:22:33;;;;;;;7.72;2.42;;;13.20;99.90;;;;;;4696030;30;20053;-87
2022/05/27 05:25:00;;;;;;;2.33;2.10;;;13.30;99.90;;;;;;4682899;30;20049;-85
2022/05/27 05:28:03;;;;;;;2.28;2.15;;;13.30;99.90;;;;;;4683044;30;20396;-87
2022/05/27 05:30:40;;;;;;;2.42;2.22;;;13.30;99.90;;;;;;4681113;30;20054;-85
2022/05/27 05:33:08;;;;;;;3.13;2.08;;;13.40;99.90;;;;;;4684416;30;20053;-82
2022/05/27 05:35:36;;;;;;;2.20;2.00;;;13.50;99.90;;;;;;4685271;30;20065;-85
2022/05/27 05:38:11;;;;;;;2.08;1.95;;;13.60;99.90;;;;;;4688559;30;20061;-87
2022/05/27 05:43:55;;;;;;;3.85;1.98;;;13.80;99.90;;;;;;4670243;30;20069;-87
2022/05/27 05:46:38;;;;;;;1.77;1.67;;;14.10;99.90;;;;;;4684444;30;20534;-88
2022/05/27 05:52:27;;;;;;;2.40;2.10;;;14.70;99.90;;;;;;4683599;30;20073;-86
2022/05/27 05:55:08;;;;;;;1.92;1.83;;;15.00;99.90;;;;;;4698416;30;20499;-87
2022/05/27 05:58:04;;;;;;;2.28;1.95;;;14.90;99.90;;;;;;4677552;30;20050;-86
2022/05/27 06:00:58;;;;;;;6.90;3.20;;;14.70;99.90;;;;;;4656475;30;20050;-86
2022/05/27 06:03:45;;;;;;;2.28;2.08;;;14.60;99.90;;;;;;4667208;30;20046;-85
2022/05/27 06:06:13;;;;;;;2.67;2.08;;;14.60;99.90;;;;;;4666482;30;20085;-87
2022/05/27 06:08:41;;;;;;;5.13;2.65;;;14.60;99.90;;;;;;4668221;30;20058;-86
2022/05/27 06:11:21;;;;;;;1.83;1.73;;;14.70;99.90;;;;;;4697033;30;20487;-87
2022/05/27 06:13:50;;;;;;;1.80;1.70;;;14.90;99.90;;;;;;4671287;30;20050;-87
2022/05/27 06:16:28;;;;;;;2.72;2.17;;;15.10;99.90;;;;;;4664750;30;20066;-85
2022/05/27 06:18:58;;;;;;;3.85;2.17;;;15.50;99.90;;;;;;4681790;30;20054;-84
2022/05/27 06:21:46;;;;;;;4.93;2.30;;;15.80;99.90;;;;;;4686245;30;20058;-84
2022/05/27 06:24:43;;;;;;;1.58;1.48;;;16.00;99.90;;;;;;4683477;30;20042;-85
2022/05/27 06:27:15;;;;;;;2.20;2.00;;;16.20;99.90;;;;;;4666034;30;20403;-84
2022/05/27 06:35:16;;;;;;;1.33;1.23;;;16.50;99.90;;;;;;4652068;30;20419;-82
2022/05/27 06:37:44;;;;;;;2.45;2.30;;;16.50;99.90;;;;;;4659766;30;20065;-84
2022/05/27 06:40:12;;;;;;;2.08;1.88;;;16.60;99.90;;;;;;4668721;30;20415;-84
2022/05/27 06:42:41;;;;;;;1.13;1.02;;;16.80;99.90;;;;;;4682628;30;20403;-83
2022/05/27 06:45:13;;;;;;;1.77;1.10;;;16.90;99.90;;;;;;4668162;30;20050;-84
2022/05/27 06:47:41;;;;;;;18.95;5.32;;;17.00;99.90;;;;;;4684103;30;20050;-85
2022/05/27 06:50:10;;;;;;;1.25;1.15;;;17.00;99.90;;;;;;4683480;30;20058;-85
2022/05/27 06:52:40;;;;;;;2.70;1.77;;;17.10;99.90;;;;;;4665299;30;20054;-84
2022/05/27 06:55:14;;;;;;;2.45;1.23;;;17.00;99.90;;;;;;4667244;30;20054;-84
2022/05/27 06:57:42;;;;;;;1.38;1.08;;;17.00;99.90;;;;;;4650709;30;20702;-85
2022/05/27 07:00:12;;;;;;;1.33;1.15;;;17.00;99.90;;;;;;4672350;30;20045;-82
2022/05/27 07:02:39;;;;;;;1.10;1.10;;;17.10;99.90;;;;;;4682084;30;20058;-82
2022/05/27 07:05:15;;;;;;;1.02;0.95;;;17.20;99.90;;;;;;4683311;30;20046;-82
2022/05/27 07:07:45;;;;;;;1.30;1.20;;;16.90;99.90;;;;;;4682006;30;20061;-81
2022/05/27 07:10:13;;;;;;;1.23;1.13;;;16.60;99.90;;;;;;4668784;30;20059;-83
2022/05/27 07:13:05;;;;;;;0.90;0.90;;;16.60;99.90;;;;;;4676765;30;20064;-82
2022/05/27 07:17:04;;;;;;;1.10;1.10;;;16.80;99.90;;;;;;4668184;30;20053;-83
2022/05/27 07:19:46;;;;;;;1.50;1.40;;;17.30;99.90;;;;;;4678155;30;20055;-80
2022/05/27 07:22:14;;;;;;;1.35;1.17;;;17.70;99.90;;;;;;4665101;30;20051;-80
2022/05/27 07:24:53;;;;;;;2.20;1.20;;;18.10;99.90;;;;;;4665550;30;20069;-81
2022/05/27 07:27:21;;;;;;;2.25;1.65;;;18.20;99.90;;;;;;4670811;30;20579;-81
2022/05/27 07:29:49;;;;;;;3.67;1.25;;;17.80;99.90;;;;;;4647906;30;20066;-82
2022/05/27 07:32:17;;;;;;;1.55;1.30;;;17.30;99.90;;;;;;4658525;30;20058;-81
2022/05/27 07:34:47;;;;;;;3.90;1.30;;;17.50;99.90;;;;;;4666143;30;20069;-83
2022/05/27 07:37:15;;;;;;;3.40;1.55;;;17.50;99.90;;;;;;4654966;30;20058;-82
2022/05/27 07:39:42;;;;;;;1.92;1.20;;;17.20;99.90;;;;;;4665203;30;20510;-82
2022/05/27 07:42:10;;;;;;;1.42;1.33;;;17.10;99.90;;;;;;4665537;30;20676;-83
2022/05/27 07:44:41;;;;;;;1.23;1.13;;;17.40;99.90;;;;;;4678695;30;20502;-85
2022/05/27 07:47:20;;;;;;;;;;;17.60;99.90;;;;;;4666314;30;20066;-81
2022/05/27 07:49:48;;;;;;;1.48;1.35;;;17.70;99.90;;;;;;4678271;30;19935;-84
2022/05/27 07:52:16;;;;;;;2.85;2.28;;;17.70;99.90;;;;;;4665734;30;20075;-85
2022/05/27 07:54:44;;;;;;;1.00;1.00;;;17.80;99.90;;;;;;4677794;30;20500;-84
2022/05/27 07:57:23;;;;;;;1.30;1.20;;;17.90;99.90;;;;;;4665226;30;20503;-81
2022/05/27 07:59:54;;;;;;;2.15;1.10;;;17.90;99.90;;;;;;4665032;30;20061;-86
2022/05/27 08:02:23;;;;;;;2.17;1.10;;;17.90;99.90;;;;;;4677659;30;20054;-84
2022/05/27 08:08:30;;;;;;;1.77;1.20;;;17.90;99.90;;;;;;4629153;30;20518;-85
2022/05/27 08:11:02;;;;;;;1.35;1.35;;;17.80;99.90;;;;;;4676158;30;20059;-87
2022/05/27 08:13:30;;;;;;;1.35;1.25;;;17.60;99.90;;;;;;4672119;30;20419;-83
2022/05/27 08:15:58;;;;;;;3.35;1.60;;;17.70;99.90;;;;;;4667416;30;20057;-86
2022/05/27 08:18:29;;;;;;;2.05;1.63;;;17.80;99.90;;;;;;4676741;30;20061;-89
2022/05/27 08:21:37;;;;;;;;;;;;;;;;;;;;;
2022/05/27 08:24:46;;;;;;;1.60;1.33;;;18.00;99.90;;;;;;4637576;30;20058;-87
2022/05/27 08:28:57;;;;;;;1.50;1.40;;;18.20;99.90;;;;;;4636143;30;20062;-89
2022/05/27 08:31:51;;;;;;;19.43;2.50;;;18.30;99.90;;;;;;4612079;30;20059;-89
2022/05/27 08:40:01;;;;;;;1.50;1.40;;;17.80;99.90;;;;;;4648863;30;20066;-87
2022/05/27 08:42:44;;;;;;;3.05;1.27;;;17.60;99.90;;;;;;4641825;30;20058;-84
2022/05/27 08:45:24;;;;;;;1.80;1.45;;;17.80;99.90;;;;;;4634523;30;20048;-84
2022/05/27 08:48:18;;;;;;;1.83;1.73;;;18.10;99.90;;;;;;4600816;31;20537;-85
2022/05/27 08:51:40;;;;;;;1.33;1.10;;;18.30;99.90;;;;;;4596302;31;20072;-87
2022/05/27 08:54:13;;;;;;;1.65;1.55;;;18.60;99.90;;;;;;4609254;30;20082;-85
2022/05/27 09:00:14;;;;;;;1.45;1.25;;;18.30;99.90;;;;;;4612457;31;20076;-86
2022/05/27 09:03:00;;;;;;;3.55;1.73;;;18.30;99.90;;;;;;4611442;30;20052;-85
2022/05/27 09:05:35;;;;;;;2.15;1.98;;;18.40;99.90;;;;;;4611796;31;20064;-85
2022/05/27 09:08:05;;;;;;;4.68;1.17;;;18.60;99.90;;;;;;4611325;31;20425;-84
2022/05/27 09:11:07;;;;;;;1.45;1.02;;;18.90;99.90;;;;;;4622242;30;20058;-86
2022/05/27 09:13:43;;;;;;;;;;;18.90;99.90;;;;;;4669738;30;20041;-86
2022/05/27 09:16:37;;;;;;;7.43;2.00;;;18.70;99.90;;;;;;4697846;30;19944;-87
2022/05/27 09:19:31;;;;;;;3.20;1.30;;;18.30;99.90;;;;;;4697898;30;20078;-86
2022/05/27 09:22:10;;;;;;;3.17;1.40;;;18.20;99.90;;;;;;4697369;30;20054;-87
2022/05/27 09:24:54;;;;;;;3.72;1.55;;;18.20;99.90;;;;;;4683267;30;20057;-82
2022/05/27 09:27:33;;;;;;;1.30;1.20;;;17.90;99.90;;;;;;4687067;30;20073;-85
2022/05/27 09:30:14;;;;;;;1.15;1.10;;;17.80;99.90;;;;;;4649020;30;20046;-88
2022/05/27 09:33:02;;;;;;;1.98;1.50;;;17.70;99.90;;;;;;4664577;30;20055;-87
2022/05/27 09:36:05;;;;;;;2.88;1.30;;;17.90;99.90;;;;;;4677296;30;20063;-91
2022/05/27 09:38:35;;;;;;;1.80;1.20;;;17.90;99.90;;;;;;4664084;30;20051;-88
2022/05/27 09:41:36;;;;;;;2.13;0.88;;;18.10;99.90;;;;;;4640745;30;20504;-88
2022/05/27 09:44:22;;;;;;;1.30;1.20;;;18.60;99.90;;;;;;4665074;30;20500;-86
2022/05/27 09:46:51;;;;;;;1.85;1.27;;;18.40;99.90;;;;;;4650413;30;20054;-87
2022/05/27 09:49:19;;;;;;;1.83;1.73;;;18.40;99.90;;;;;;4644513;30;20386;-82
2022/05/27 09:51:51;;;;;;;1.67;1.55;;;18.40;99.90;;;;;;4659665;30;20090;-84
2022/05/27 09:54:37;;;;;;;1.45;1.35;;;18.60;99.90;;;;;;4654232;30;20052;-86
2022/05/27 09:57:16;;;;;;;0.93;0.93;;;18.90;99.90;;;;;;4676584;30;20448;-88
2022/05/27 09:59:47;;;;;;;0.90;0.90;;;19.00;99.90;;;;;;4645237;30;20054;-84
2022/05/27 10:02:33;;;;;;;3.95;1.23;;;19.00;99.90;;;;;;4645116;30;20077;-86
2022/05/27 10:05:06;;;;;;;1.33;1.23;;;19.10;99.90;;;;;;4658619;30;20077;-88
2022/05/27 10:07:46;;;;;;;3.38;1.70;;;19.00;99.90;;;;;;4643869;30;20074;-86
2022/05/27 10:10:31;;;;;;;1.73;1.00;;;19.00;99.90;;;;;;4656688;30;20893;-83
2022/05/27 10:13:34;;;;;;;2.15;1.77;;;19.10;99.90;;;;;;4643430;30;20051;-88
2022/05/27 10:16:10;;;;;;;1.45;1.35;;;19.20;99.90;;;;;;4645518;30;20063;-87
2022/05/27 10:18:42;;;;;;;2.20;1.42;;;18.80;99.90;;;;;;4672734;30;20058;-88
2022/05/27 10:21:17;;;;;;;;;;;18.50;99.90;;;;;;4697372;30;20061;-88
2022/05/27 10:23:54;;;;;;;2.63;1.38;;;18.30;99.90;;;;;;4681486;30;19927;-89
2022/05/27 10:26:34;;;;;;;4.47;1.35;;;18.40;99.90;;;;;;4681455;30;20057;-87
2022/05/27 10:37:23;;;;;;;1.55;0.73;;;18.80;99.90;;;;;;4622831;30;20047;-89
2022/05/27 10:39:59;;;;;;;1.00;0.90;;;18.70;99.90;;;;;;4665267;30;20081;-88
2022/05/27 10:46:22;;;;;;;1.17;0.80;;;19.20;99.90;;;;;;4618992;30;20063;-87
2022/05/27 10:49:54;;;;;;;2.78;1.50;;;19.50;99.90;;;;;;4642024;30;20574;-87
2022/05/27 10:53:10;;;;;;;1.08;0.98;;;19.60;99.90;;;;;;4637997;30;20066;-85
2022/05/27 11:03:07;;;;;;;5.78;2.97;;;19.60;99.90;;;;;;4635505;30;20043;-86
2022/05/27 11:06:00;;;;;;;0.73;0.73;;;19.50;99.90;;;;;;4649684;30;20054;-87
2022/05/27 11:08:46;;;;;;;1.63;1.52;;;19.60;99.90;;;;;;4650145;30;20100;-86
2022/05/27 11:11:19;;;;;;;0.98;0.98;;;19.80;99.90;;;;;;4664306;30;20082;-86
2022/05/27 11:17:14;;;;;;;0.93;0.93;;;19.90;99.90;;;;;;4669328;30;20488;-83
2022/05/27 11:20:07;;;;;;;2.67;1.00;;;19.60;99.90;;;;;;4646834;30;20859;-80
2022/05/27 11:22:58;;;;;;;3.67;1.23;;;19.60;99.90;;;;;;4673561;30;20051;-80
2022/05/27 11:25:40;;;;;;;1.48;1.10;;;19.70;99.90;;;;;;4663542;30;20062;-78
2022/05/27 11:28:35;;;;;;;0.73;0.73;;;19.40;99.90;;;;;;4678298;30;20675;-82
2022/05/27 11:31:15;;;;;;;1.45;1.35;;;19.50;99.90;;;;;;4672908;30;20089;-79
2022/05/27 11:34:17;;;;;;;1.75;1.50;;;19.80;99.90;;;;;;4682194;30;20414;-82
2022/05/27 11:37:22;;;;;;;3.42;1.25;;;20.10;99.90;;;;;;4651747;30;20066;-81
2022/05/27 11:40:07;;;;;;;5.45;1.48;;;20.30;99.90;;;;;;4677387;30;20419;-79
2022/05/27 11:43:02;;;;;;;1.00;0.90;;;20.30;99.90;;;;;;4664562;30;20050;-79
2022/05/27 11:45:51;;;;;;;1.67;1.08;;;20.00;99.90;;;;;;4678313;30;20054;-80
2022/05/27 11:48:37;;;;;;;1.52;0.98;;;20.10;99.90;;;;;;4678627;30;20060;-78
2022/05/27 11:51:52;;;;;;;1.17;1.08;;;20.20;99.90;;;;;;4676318;30;20058;-81
2022/05/27 11:54:44;;;;;;;3.00;1.08;;;20.10;99.90;;;;;;4675946;30;20069;-81
2022/05/27 11:57:39;;;;;;;2.05;0.90;;;20.20;99.90;;;;;;4681364;30;20058;-79
2022/05/27 12:00:18;;;;;;;3.33;1.23;;;20.60;99.90;;;;;;4674349;30;20058;-86
2022/05/27 12:02:54;;;;;;;14.52;1.33;;;20.60;99.90;;;;;;4680930;30;20054;-83
2022/05/27 12:05:42;;;;;;;2.35;1.38;;;20.40;99.90;;;;;;4681946;30;20058;-84
2022/05/27 12:08:37;;;;;;;1.67;1.55;;;20.20;99.90;;;;;;4664151;30;20415;-82
2022/05/27 12:11:33;;;;;;;8.63;2.05;;;20.00;99.90;;;;;;4690322;30;20069;-80
2022/05/27 12:14:13;;;;;;;1.13;0.93;;;19.70;99.90;;;;;;4687016;30;20395;-79
2022/05/27 12:16:48;;;;;;;2.85;1.38;;;19.80;99.90;;;;;;4694952;30;20053;-81
2022/05/27 12:19:25;;;;;;;3.72;1.50;;;20.00;99.90;;;;;;4633319;30;20063;-82
2022/05/27 12:22:04;;;;;;;0.80;0.80;;;20.30;99.90;;;;;;4663730;30;20412;-87
2022/05/27 12:24:45;;;;;;;1.50;1.40;;;20.20;99.90;;;;;;4663348;30;20058;-82
2022/05/27 12:27:17;;;;;;;8.50;2.55;;;20.00;99.90;;;;;;4663348;30;20058;-82
2022/05/27 12:29:48;;;;;;;2.90;1.73;;;20.20;99.90;;;;;;4646092;30;20066;-81
2022/05/27 12:32:25;;;;;;;2.28;1.17;;;20.40;99.90;;;;;;4649736;30;20424;-79
2022/05/27 12:35:17;;;;;;;4.65;1.35;;;20.50;99.90;;;;;;4642599;30;20076;-84
2022/05/27 12:38:00;;;;;;;1.80;0.90;;;20.70;99.90;;;;;;4664737;30;20054;-87
2022/05/27 12:40:44;;;;;;;0.90;0.90;;;20.80;99.90;;;;;;4648434;30;20676;-83
2022/05/27 12:43:25;;;;;;;1.40;1.30;;;21.00;99.90;;;;;;4646911;30;20424;-84
2022/05/27 12:46:04;;;;;;;0.80;0.80;;;20.60;99.90;;;;;;4646851;30;20051;-84
2022/05/27 12:48:38;;;;;;;1.75;1.15;;;20.30;99.90;;;;;;4660489;30;20070;-85
2022/05/27 12:51:26;;;;;;;1.27;1.00;;;20.30;99.90;;;;;;4661276;30;20058;-84
2022/05/27 12:53:59;;;;;;;1.27;0.70;;;20.50;99.90;;;;;;4645690;30;20416;-88
2022/05/27 13:02:25;;;;;;;3.60;1.95;;;20.40;99.90;;;;;;4664183;30;20035;-85
2022/05/27 13:05:01;;;;;;;1.15;0.98;;;20.50;99.90;;;;;;4649191;30;20046;-84
2022/05/27 13:07:33;;;;;;;0.85;0.82;;;20.20;99.90;;;;;;4633377;30;20073;-85
2022/05/27 13:10:17;;;;;;;0.90;0.90;;;20.40;99.90;;;;;;4662791;30;20077;-81
2022/05/27 13:12:53;;;;;;;0.70;0.70;;;20.90;99.90;;;;;;4664497;30;20755;-86
2022/05/27 13:15:40;;;;;;;3.80;0.82;;;20.70;99.90;;;;;;4663646;30;20058;-87
2022/05/27 13:18:33;;;;;;;2.20;1.02;;;20.60;99.90;;;;;;4655898;30;20050;-88
2022/05/27 13:21:30;;;;;;;1.25;1.15;;;20.50;99.90;;;;;;4681504;30;20502;-83
2022/05/27 13:24:15;;;;;;;0.90;0.90;;;20.70;99.90;;;;;;4682130;30;20065;-84
2022/05/27 13:27:00;;;;;;;1.70;0.80;;;20.90;99.90;;;;;;4679940;30;20088;-87
2022/05/27 13:29:42;;;;;;;1.58;1.27;;;20.80;99.90;;;;;;4666105;30;20058;-89
2022/05/27 13:32:21;;;;;;;1.38;1.27;;;20.50;99.90;;;;;;4680784;30;20070;-86
2022/05/27 13:35:17;;;;;;;1.55;1.45;;;20.10;99.90;;;;;;4681269;30;20447;-80
2022/05/27 13:38:03;;;;;;;2.67;1.13;;;20.00;99.90;;;;;;4679749;30;20067;-83
2022/05/27 13:40:34;;;;;;;1.10;1.02;;;20.40;99.90;;;;;;4666078;30;20054;-83
2022/05/27 13:43:17;;;;;;;2.15;1.05;;;20.50;99.90;;;;;;4681946;30;20061;-90
2022/05/27 13:46:18;;;;;;;1.35;1.05;;;20.50;99.90;;;;;;4681533;30;20067;-83
2022/05/27 13:49:09;;;;;;;1.38;1.27;;;20.70;99.90;;;;;;4662081;30;20071;-83
2022/05/27 13:51:44;;;;;;;8.40;0.98;;;21.10;99.90;;;;;;4663325;30;20065;-81
2022/05/27 13:54:17;;;;;;;1.10;1.00;;;21.30;99.90;;;;;;4682137;30;20069;-87
2022/05/27 13:56:57;;;;;;;1.23;1.13;;;21.10;99.90;;;;;;4683417;30;20065;-82
2022/05/27 13:59:47;;;;;;;1.08;1.08;;;21.00;99.90;;;;;;4683985;30;20078;-83
2022/05/27 14:02:29;;;;;;;2.83;2.05;;;20.90;99.90;;;;;;4661365;30;20054;-89
2022/05/27 14:05:03;;;;;;;2.47;1.20;;;20.40;99.90;;;;;;4669063;30;20050;-83
2022/05/27 14:07:44;;;;;;;2.25;1.48;;;20.40;99.90;;;;;;4684832;30;20054;-84
2022/05/27 14:10:32;;;;;;;1.85;1.35;;;20.50;99.90;;;;;;4683228;30;20480;-83
2022/05/27 14:13:21;;;;;;;1.35;1.25;;;20.70;99.90;;;;;;4683264;30;20042;-84
2022/05/27 14:17:06;;;;;;;4.45;1.52;;;21.00;99.90;;;;;;4683576;30;20058;-84
2022/05/27 14:19:40;;;;;;;1.65;1.25;;;21.10;99.90;;;;;;4637485;30;20396;-85
2022/05/27 14:25:30;;;;;;;1.95;1.40;;;20.70;99.90;;;;;;4666998;30;20062;-86
2022/05/27 14:28:03;;;;;;;2.08;1.98;;;20.40;99.90;;;;;;4667561;30;20066;-86
2022/05/27 14:30:37;;;;;;;1.30;1.20;;;20.30;99.90;;;;;;4665838;30;20051;-91
2022/05/27 14:33:22;;;;;;;3.53;1.40;;;20.40;99.90;;;;;;4665726;30;20412;-87
2022/05/27 14:35:54;;;;;;;2.17;1.15;;;20.70;99.90;;;;;;4667237;30;20069;-84
2022/05/27 14:38:37;;;;;;;1.88;1.63;;;20.90;99.90;;;;;;4651409;30;20053;-83
2022/05/27 14:41:09;;;;;;;3.45;1.10;;;20.70;99.90;;;;;;4655814;30;20043;-84
2022/05/27 14:43:49;;;;;;;2.15;2.00;;;20.70;99.90;;;;;;4656118;30;20058;-87
2022/05/27 14:46:25;;;;;;;1.40;1.33;;;20.80;99.90;;;;;;4668374;30;20058;-83
2022/05/27 14:48:58;;;;;;;2.40;1.20;;;20.90;99.90;;;;;;4683780;30;20046;-85
2022/05/27 14:51:41;;;;;;;13.07;2.67;;;20.90;99.90;;;;;;4667355;30;20508;-81
2022/05/27 14:54:34;;;;;;;1.05;1.02;;;20.80;99.90;;;;;;4682521;30;20042;-86
2022/05/27 14:57:25;;;;;;;4.55;1.67;;;20.80;99.90;;;;;;4681693;30;20522;-84
2022/05/27 15:00:03;;;;;;;1.13;0.93;;;20.90;99.90;;;;;;4681923;30;20200;-86
2022/05/27 15:02:35;;;;;;;1.38;1.27;;;21.20;99.90;;;;;;4668101;30;20046;-85
2022/05/27 15:05:14;;;;;;;;;;;21.20;99.90;;;;;;4682502;30;20053;-85
2022/05/27 15:07:42;;;;;;;2.63;1.50;;;21.10;99.90;;;;;;4682465;30;19931;-85
2022/05/27 15:10:22;;;;;;;1.83;1.30;;;20.90;99.90;;;;;;4681858;30;20050;-83
2022/05/27 15:12:51;;;;;;;2.40;1.63;;;20.60;99.90;;;;;;4682722;30;20053;-85
2022/05/27 15:15:41;;;;;;;3.97;1.60;;;20.30;99.90;;;;;;4683814;30;20062;-83
2022/05/27 15:18:14;;;;;;;1.63;1.53;;;20.10;99.90;;;;;;4681942;30;20069;-86
2022/05/27 15:20:45;;;;;;;1.23;1.20;;;19.90;99.90;;;;;;4683037;30;20057;-83
2022/05/27 15:23:21;;;;;;;;;;;19.90;99.90;;;;;;4683750;30;20061;-82
2022/05/27 15:33:05;;;;;;;2.08;1.42;;;20.20;99.90;;;;;;4682770;30;19938;-86
2022/05/27 15:34:35;;;;;;;3.35;1.50;;;20.10;99.90;;;;;;4646420;30;20092;-82
2022/05/27 15:37:08;;;;;;;2.73;1.50;;;20.10;99.90;;;;;;4646242;30;20042;-88
2022/05/27 15:39:40;;;;;;;2.03;1.15;;;20.00;99.90;;;;;;4682198;30;20297;-83
2022/05/27 15:42:08;;;;;;;1.35;1.25;;;19.90;99.90;;;;;;4682557;30;20138;-90
2022/05/27 15:44:36;;;;;;;8.65;2.03;;;20.10;99.90;;;;;;4667547;30;20057;-88
2022/05/27 15:47:11;;;;;;;2.05;1.10;;;20.20;99.90;;;;;;4681771;30;20407;-83
2022/05/27 15:49:39;;;;;;;1.40;1.30;;;20.20;99.90;;;;;;4682491;30;20058;-85
2022/05/27 15:52:07;;;;;;;0.90;0.90;;;20.00;99.90;;;;;;4682685;30;20057;-83
2022/05/27 15:54:34;;;;;;;1.70;1.10;;;19.70;99.90;;;;;;4681165;30;20058;-85
2022/05/27 15:57:03;;;;;;;1.83;1.10;;;19.40;99.90;;;;;;4667008;30;20057;-84
2022/05/27 15:59:36;;;;;;;1.23;1.10;;;19.20;99.90;;;;;;4681229;30;20054;-87
2022/05/27 16:02:04;;;;;;;1.65;1.05;;;19.10;99.90;;;;;;4666695;30;20496;-85
2022/05/27 16:04:34;;;;;;;1.45;1.35;;;18.90;99.90;;;;;;4681064;30;20046;-86
2022/05/27 16:07:02;;;;;;;5.17;2.23;;;18.80;99.90;;;;;;4682534;30;20050;-86
2022/05/27 16:09:30;;;;;;;3.72;1.25;;;18.70;99.90;;;;;;4680980;30;20511;-87
2022/05/27 16:11:58;;;;;;;1.58;1.48;;;18.60;99.90;;;;;;4681769;30;20058;-81
2022/05/27 16:14:26;;;;;;;1.40;1.30;;;18.60;99.90;;;;;;4681143;30;20050;-87
2022/05/27 16:19:47;;;;;;;1.65;1.30;;;18.40;99.90;;;;;;4681735;30;20069;-86
2022/05/27 16:22:16;;;;;;;7.40;1.50;;;18.30;99.90;;;;;;4666405;30;20066;-83
2022/05/27 16:24:44;;;;;;;1.08;1.08;;;18.30;99.90;;;;;;4681722;30;20058;-82
2022/05/27 16:27:12;;;;;;;1.27;1.25;;;18.20;99.90;;;;;;4682052;30;20080;-89
2022/05/27 16:29:41;;;;;;;1.30;1.20;;;18.10;99.90;;;;;;4680428;30;20058;-86
2022/05/27 16:32:10;;;;;;;6.93;2.25;;;18.10;99.90;;;;;;4680954;30;20062;-83
2022/05/27 16:34:38;;;;;;;17.88;2.80;;;18.10;99.90;;;;;;4695760;30;20053;-83
2022/05/27 16:37:09;;;;;;;1.17;1.10;;;18.00;99.90;;;;;;4681319;30;20057;-88
2022/05/27 16:39:41;;;;;;;2.42;1.70;;;18.00;99.90;;;;;;4681241;30;20062;-78
2022/05/27 16:42:15;;;;;;;2.97;1.50;;;17.90;99.90;;;;;;4678892;30;20045;-83
2022/05/27 16:44:47;;;;;;;1.55;1.42;;;17.80;99.90;;;;;;4681271;30;20050;-88
2022/05/27 16:47:23;;;;;;;2.47;1.33;;;17.80;99.90;;;;;;4682749;30;20062;-90
2022/05/27 16:49:57;;;;;;;5.55;1.85;;;17.70;99.90;;;;;;4681577;30;20064;-88
2022/05/27 16:52:28;;;;;;;1.42;0.93;;;17.70;99.90;;;;;;4681457;30;20058;-85
2022/05/27 16:54:56;;;;;;;1.75;1.65;;;17.70;99.90;;;;;;4682505;30;20050;-87
2022/05/27 16:57:24;;;;;;;1.40;1.25;;;17.60;99.90;;;;;;4679043;30;20046;-82
2022/05/27 16:59:53;;;;;;;2.78;1.55;;;17.50;99.90;;;;;;4680769;30;20072;-87
2022/05/27 17:02:22;;;;;;;1.88;1.40;;;17.50;99.90;;;;;;4682286;30;20862;-85